sensor_id;sensor_type;location;lat;lon;timestamp;P1;durP1;ratioP1;P2;durP2;ratioP2
15039;SDS011;7617;47.366;8.558;2024-02-04T00:01:21;6.17;;;5.43;;
15039;SDS011;7617;47.366;8.558;2024-02-04T00:03:49;5.73;;;4.87;;
15039;SDS011;7617;47.366;8.558;2024-02-04T00:06:19;6.80;;;5.60;;
15039;SDS011;7617;47.366;8.558;2024-02-04T00:08:47;5.70;;;5.10;;
15039;SDS011;7617;47.366;8.558;2024-02-04T00:11:17;6.77;;;5.20;;
15039;SDS011;7617;47.366;8.558;2024-02-04T00:13:46;5.77;;;5.13;;
15039;SDS011;7617;47.366;8.558;2024-02-04T00:16:14;4.87;;;4.37;;
15039;SDS011;7617;47.366;8.558;2024-02-04T00:18:42;4.87;;;4.37;;
15039;SDS011;7617;47.366;8.558;2024-02-04T00:21:11;4.97;;;4.47;;
15039;SDS011;7617;47.366;8.558;2024-02-04T00:23:39;4.53;;;4.10;;
15039;SDS011;7617;47.366;8.558;2024-02-04T00:26:08;5.60;;;4.43;;
15039;SDS011;7617;47.366;8.558;2024-02-04T00:28:38;5.77;;;4.10;;
15039;SDS011;7617;47.366;8.558;2024-02-04T00:31:10;5.70;;;4.40;;
15039;SDS011;7617;47.366;8.558;2024-02-04T00:33:38;5.13;;;4.43;;
15039;SDS011;7617;47.366;8.558;2024-02-04T00:36:07;4.50;;;3.97;;
15039;SDS011;7617;47.366;8.558;2024-02-04T00:38:35;4.13;;;3.73;;
15039;SDS011;7617;47.366;8.558;2024-02-04T00:41:06;4.83;;;4.03;;
15039;SDS011;7617;47.366;8.558;2024-02-04T00:43:34;5.33;;;4.00;;
15039;SDS011;7617;47.366;8.558;2024-02-04T00:46:04;4.67;;;4.03;;
15039;SDS011;7617;47.366;8.558;2024-02-04T00:48:34;4.37;;;3.60;;
15039;SDS011;7617;47.366;8.558;2024-02-04T00:51:02;4.03;;;3.63;;
15039;SDS011;7617;47.366;8.558;2024-02-04T00:53:31;4.40;;;3.73;;
15039;SDS011;7617;47.366;8.558;2024-02-04T00:56:01;3.37;;;3.07;;
15039;SDS011;7617;47.366;8.558;2024-02-04T00:58:31;4.00;;;3.60;;
15039;SDS011;7617;47.366;8.558;2024-02-04T01:01:00;4.13;;;3.73;;
15039;SDS011;7617;47.366;8.558;2024-02-04T01:03:30;4.03;;;3.67;;
15039;SDS011;7617;47.366;8.558;2024-02-04T01:05:59;3.80;;;3.40;;
15039;SDS011;7617;47.366;8.558;2024-02-04T01:08:27;3.83;;;3.17;;
15039;SDS011;7617;47.366;8.558;2024-02-04T01:10:56;3.80;;;3.03;;
15039;SDS011;7617;47.366;8.558;2024-02-04T01:13:24;3.43;;;3.07;;
15039;SDS011;7617;47.366;8.558;2024-02-04T01:15:53;3.10;;;2.80;;
15039;SDS011;7617;47.366;8.558;2024-02-04T01:18:21;3.63;;;3.13;;
15039;SDS011;7617;47.366;8.558;2024-02-04T01:20:51;3.20;;;2.90;;
15039;SDS011;7617;47.366;8.558;2024-02-04T01:23:19;3.20;;;2.90;;
15039;SDS011;7617;47.366;8.558;2024-02-04T01:25:47;2.90;;;2.70;;
15039;SDS011;7617;47.366;8.558;2024-02-04T01:28:16;3.03;;;2.73;;
15039;SDS011;7617;47.366;8.558;2024-02-04T01:30:44;3.10;;;2.83;;
15039;SDS011;7617;47.366;8.558;2024-02-04T01:33:12;2.60;;;2.40;;
15039;SDS011;7617;47.366;8.558;2024-02-04T01:35:41;3.10;;;2.80;;
15039;SDS011;7617;47.366;8.558;2024-02-04T01:38:11;3.40;;;2.63;;
15039;SDS011;7617;47.366;8.558;2024-02-04T01:40:39;4.80;;;3.20;;
15039;SDS011;7617;47.366;8.558;2024-02-04T01:43:08;5.10;;;4.10;;
15039;SDS011;7617;47.366;8.558;2024-02-04T01:45:36;6.13;;;5.50;;
15039;SDS011;7617;47.366;8.558;2024-02-04T01:48:05;8.07;;;6.90;;
15039;SDS011;7617;47.366;8.558;2024-02-04T01:50:34;8.80;;;7.90;;
15039;SDS011;7617;47.366;8.558;2024-02-04T01:53:02;11.53;;;8.53;;
15039;SDS011;7617;47.366;8.558;2024-02-04T01:55:33;10.63;;;8.80;;
15039;SDS011;7617;47.366;8.558;2024-02-04T01:58:01;11.27;;;9.37;;
15039;SDS011;7617;47.366;8.558;2024-02-04T02:00:30;12.10;;;9.83;;
15039;SDS011;7617;47.366;8.558;2024-02-04T02:02:59;12.50;;;9.97;;
15039;SDS011;7617;47.366;8.558;2024-02-04T02:05:29;11.73;;;9.67;;
15039;SDS011;7617;47.366;8.558;2024-02-04T02:07:57;10.20;;;8.57;;
15039;SDS011;7617;47.366;8.558;2024-02-04T02:10:26;10.67;;;9.00;;
15039;SDS011;7617;47.366;8.558;2024-02-04T02:12:56;10.37;;;8.80;;
15039;SDS011;7617;47.366;8.558;2024-02-04T02:15:30;11.40;;;8.80;;
15039;SDS011;7617;47.366;8.558;2024-02-04T02:18:04;12.43;;;8.80;;
15039;SDS011;7617;47.366;8.558;2024-02-04T02:20:59;8.50;;;7.57;;
15039;SDS011;7617;47.366;8.558;2024-02-04T02:23:40;10.27;;;8.23;;
15039;SDS011;7617;47.366;8.558;2024-02-04T02:26:17;10.30;;;7.67;;
15039;SDS011;7617;47.366;8.558;2024-02-04T02:28:47;9.30;;;7.83;;
15039;SDS011;7617;47.366;8.558;2024-02-04T02:31:15;8.70;;;7.53;;
15039;SDS011;7617;47.366;8.558;2024-02-04T02:33:53;9.00;;;7.77;;
15039;SDS011;7617;47.366;8.558;2024-02-04T02:36:22;9.87;;;8.47;;
15039;SDS011;7617;47.366;8.558;2024-02-04T02:38:52;9.93;;;8.07;;
15039;SDS011;7617;47.366;8.558;2024-02-04T02:41:30;8.17;;;7.27;;
15039;SDS011;7617;47.366;8.558;2024-02-04T02:43:59;9.27;;;7.80;;
15039;SDS011;7617;47.366;8.558;2024-02-04T02:46:28;8.50;;;7.47;;
15039;SDS011;7617;47.366;8.558;2024-02-04T02:48:57;10.33;;;7.80;;
15039;SDS011;7617;47.366;8.558;2024-02-04T02:51:26;8.37;;;6.80;;
15039;SDS011;7617;47.366;8.558;2024-02-04T02:53:54;8.70;;;7.30;;
15039;SDS011;7617;47.366;8.558;2024-02-04T02:56:22;8.23;;;7.30;;
15039;SDS011;7617;47.366;8.558;2024-02-04T02:58:52;8.90;;;7.53;;
15039;SDS011;7617;47.366;8.558;2024-02-04T03:01:21;9.50;;;6.37;;
15039;SDS011;7617;47.366;8.558;2024-02-04T03:03:50;7.17;;;6.37;;
15039;SDS011;7617;47.366;8.558;2024-02-04T03:06:18;7.70;;;6.57;;
15039;SDS011;7617;47.366;8.558;2024-02-04T03:08:47;8.53;;;6.40;;
15039;SDS011;7617;47.366;8.558;2024-02-04T03:11:15;6.77;;;5.90;;
15039;SDS011;7617;47.366;8.558;2024-02-04T03:13:43;7.07;;;6.00;;
15039;SDS011;7617;47.366;8.558;2024-02-04T03:16:13;8.73;;;7.27;;
15039;SDS011;7617;47.366;8.558;2024-02-04T03:18:42;8.13;;;7.07;;
15039;SDS011;7617;47.366;8.558;2024-02-04T03:21:12;7.93;;;6.77;;
15039;SDS011;7617;47.366;8.558;2024-02-04T03:23:42;7.73;;;6.93;;
15039;SDS011;7617;47.366;8.558;2024-02-04T03:26:11;6.87;;;5.07;;
15039;SDS011;7617;47.366;8.558;2024-02-04T03:28:43;6.13;;;5.53;;
15039;SDS011;7617;47.366;8.558;2024-02-04T03:31:11;6.77;;;6.07;;
15039;SDS011;7617;47.366;8.558;2024-02-04T03:33:47;7.83;;;6.63;;
15039;SDS011;7617;47.366;8.558;2024-02-04T03:36:18;8.40;;;6.83;;
15039;SDS011;7617;47.366;8.558;2024-02-04T03:38:48;7.53;;;6.50;;
15039;SDS011;7617;47.366;8.558;2024-02-04T03:41:17;8.00;;;6.63;;
15039;SDS011;7617;47.366;8.558;2024-02-04T03:43:45;9.93;;;7.37;;
15039;SDS011;7617;47.366;8.558;2024-02-04T03:46:16;7.57;;;6.47;;
15039;SDS011;7617;47.366;8.558;2024-02-04T03:48:45;6.70;;;5.77;;
15039;SDS011;7617;47.366;8.558;2024-02-04T03:51:17;8.57;;;6.27;;
15039;SDS011;7617;47.366;8.558;2024-02-04T03:53:47;8.33;;;6.70;;
15039;SDS011;7617;47.366;8.558;2024-02-04T03:56:17;8.20;;;6.23;;
15039;SDS011;7617;47.366;8.558;2024-02-04T03:58:45;8.90;;;6.70;;
15039;SDS011;7617;47.366;8.558;2024-02-04T04:01:14;6.17;;;5.47;;
15039;SDS011;7617;47.366;8.558;2024-02-04T04:03:43;6.97;;;5.30;;
15039;SDS011;7617;47.366;8.558;2024-02-04T04:06:12;7.17;;;4.97;;
15039;SDS011;7617;47.366;8.558;2024-02-04T04:08:41;5.63;;;5.13;;
15039;SDS011;7617;47.366;8.558;2024-02-04T04:11:09;5.37;;;4.50;;
15039;SDS011;7617;47.366;8.558;2024-02-04T04:13:38;5.50;;;4.93;;
15039;SDS011;7617;47.366;8.558;2024-02-04T04:16:07;6.30;;;5.17;;
15039;SDS011;7617;47.366;8.558;2024-02-04T04:18:35;6.72;;;4.80;;
15039;SDS011;7617;47.366;8.558;2024-02-04T04:21:05;6.07;;;4.90;;
15039;SDS011;7617;47.366;8.558;2024-02-04T04:23:33;5.93;;;5.13;;
15039;SDS011;7617;47.366;8.558;2024-02-04T04:26:01;5.53;;;4.93;;
15039;SDS011;7617;47.366;8.558;2024-02-04T04:28:29;5.70;;;5.10;;
15039;SDS011;7617;47.366;8.558;2024-02-04T04:30:58;5.53;;;4.77;;
15039;SDS011;7617;47.366;8.558;2024-02-04T04:33:26;7.50;;;5.70;;
15039;SDS011;7617;47.366;8.558;2024-02-04T04:35:54;6.03;;;5.03;;
15039;SDS011;7617;47.366;8.558;2024-02-04T04:38:24;7.17;;;5.97;;
15039;SDS011;7617;47.366;8.558;2024-02-04T04:40:53;8.37;;;5.73;;
15039;SDS011;7617;47.366;8.558;2024-02-04T04:43:21;6.93;;;5.97;;
15039;SDS011;7617;47.366;8.558;2024-02-04T04:45:49;6.87;;;5.93;;
15039;SDS011;7617;47.366;8.558;2024-02-04T04:48:18;7.17;;;5.60;;
15039;SDS011;7617;47.366;8.558;2024-02-04T04:50:46;7.27;;;6.23;;
15039;SDS011;7617;47.366;8.558;2024-02-04T04:53:15;7.50;;;6.53;;
15039;SDS011;7617;47.366;8.558;2024-02-04T04:55:46;7.93;;;6.63;;
15039;SDS011;7617;47.366;8.558;2024-02-04T04:58:14;9.00;;;6.83;;
15039;SDS011;7617;47.366;8.558;2024-02-04T05:00:42;9.50;;;6.83;;
15039;SDS011;7617;47.366;8.558;2024-02-04T05:03:10;7.60;;;6.80;;
15039;SDS011;7617;47.366;8.558;2024-02-04T05:05:38;9.70;;;7.63;;
15039;SDS011;7617;47.366;8.558;2024-02-04T05:08:07;8.83;;;7.23;;
15039;SDS011;7617;47.366;8.558;2024-02-04T05:10:35;8.33;;;7.10;;
15039;SDS011;7617;47.366;8.558;2024-02-04T05:13:04;8.73;;;6.97;;
15039;SDS011;7617;47.366;8.558;2024-02-04T05:15:33;9.37;;;7.70;;
15039;SDS011;7617;47.366;8.558;2024-02-04T05:18:02;9.13;;;7.73;;
15039;SDS011;7617;47.366;8.558;2024-02-04T05:20:31;10.60;;;7.63;;
15039;SDS011;7617;47.366;8.558;2024-02-04T05:22:59;10.53;;;7.50;;
15039;SDS011;7617;47.366;8.558;2024-02-04T05:25:27;10.67;;;7.63;;
15039;SDS011;7617;47.366;8.558;2024-02-04T05:27:56;9.80;;;7.40;;
15039;SDS011;7617;47.366;8.558;2024-02-04T05:30:26;9.30;;;7.63;;
15039;SDS011;7617;47.366;8.558;2024-02-04T05:32:57;8.77;;;7.10;;
15039;SDS011;7617;47.366;8.558;2024-02-04T05:35:26;10.10;;;8.10;;
15039;SDS011;7617;47.366;8.558;2024-02-04T05:37:54;9.90;;;8.07;;
15039;SDS011;7617;47.366;8.558;2024-02-04T05:40:22;8.03;;;7.17;;
15039;SDS011;7617;47.366;8.558;2024-02-04T05:42:50;9.57;;;6.60;;
15039;SDS011;7617;47.366;8.558;2024-02-04T05:45:19;8.87;;;6.93;;
15039;SDS011;7617;47.366;8.558;2024-02-04T05:47:48;10.60;;;7.47;;
15039;SDS011;7617;47.366;8.558;2024-02-04T05:50:17;8.70;;;6.63;;
15039;SDS011;7617;47.366;8.558;2024-02-04T05:52:46;9.03;;;6.53;;
15039;SDS011;7617;47.366;8.558;2024-02-04T05:55:15;8.30;;;7.00;;
15039;SDS011;7617;47.366;8.558;2024-02-04T05:57:44;8.53;;;6.30;;
15039;SDS011;7617;47.366;8.558;2024-02-04T06:00:13;9.30;;;7.33;;
15039;SDS011;7617;47.366;8.558;2024-02-04T06:02:41;8.47;;;6.83;;
15039;SDS011;7617;47.366;8.558;2024-02-04T06:05:12;9.73;;;7.10;;
15039;SDS011;7617;47.366;8.558;2024-02-04T06:07:42;7.80;;;6.37;;
15039;SDS011;7617;47.366;8.558;2024-02-04T06:10:10;7.00;;;6.30;;
15039;SDS011;7617;47.366;8.558;2024-02-04T06:12:39;7.77;;;6.23;;
15039;SDS011;7617;47.366;8.558;2024-02-04T06:15:12;8.47;;;7.03;;
15039;SDS011;7617;47.366;8.558;2024-02-04T06:17:41;9.30;;;5.77;;
15039;SDS011;7617;47.366;8.558;2024-02-04T06:20:10;7.57;;;6.53;;
15039;SDS011;7617;47.366;8.558;2024-02-04T06:22:40;7.73;;;6.07;;
15039;SDS011;7617;47.366;8.558;2024-02-04T06:25:09;8.10;;;6.73;;
15039;SDS011;7617;47.366;8.558;2024-02-04T06:27:37;9.27;;;7.10;;
15039;SDS011;7617;47.366;8.558;2024-02-04T06:30:07;9.53;;;7.63;;
15039;SDS011;7617;47.366;8.558;2024-02-04T06:32:36;8.80;;;7.17;;
15039;SDS011;7617;47.366;8.558;2024-02-04T06:35:06;9.63;;;7.60;;
15039;SDS011;7617;47.366;8.558;2024-02-04T06:37:35;10.07;;;7.73;;
15039;SDS011;7617;47.366;8.558;2024-02-04T06:40:05;9.40;;;7.63;;
15039;SDS011;7617;47.366;8.558;2024-02-04T06:42:35;11.37;;;8.73;;
15039;SDS011;7617;47.366;8.558;2024-02-04T06:45:04;10.60;;;8.93;;
15039;SDS011;7617;47.366;8.558;2024-02-04T06:47:33;11.03;;;8.57;;
15039;SDS011;7617;47.366;8.558;2024-02-04T06:50:01;9.97;;;8.03;;
15039;SDS011;7617;47.366;8.558;2024-02-04T06:52:32;9.97;;;7.80;;
15039;SDS011;7617;47.366;8.558;2024-02-04T06:55:01;12.60;;;8.17;;
15039;SDS011;7617;47.366;8.558;2024-02-04T06:57:31;9.33;;;8.30;;
15039;SDS011;7617;47.366;8.558;2024-02-04T07:00:00;9.80;;;8.60;;
15039;SDS011;7617;47.366;8.558;2024-02-04T07:02:32;10.03;;;8.00;;
15039;SDS011;7617;47.366;8.558;2024-02-04T07:05:00;10.07;;;8.00;;
15039;SDS011;7617;47.366;8.558;2024-02-04T07:07:28;11.00;;;8.57;;
15039;SDS011;7617;47.366;8.558;2024-02-04T07:09:57;9.83;;;8.03;;
15039;SDS011;7617;47.366;8.558;2024-02-04T07:12:26;11.53;;;9.07;;
15039;SDS011;7617;47.366;8.558;2024-02-04T07:14:56;11.17;;;8.77;;
15039;SDS011;7617;47.366;8.558;2024-02-04T07:17:25;10.40;;;8.83;;
15039;SDS011;7617;47.366;8.558;2024-02-04T07:19:54;11.37;;;8.40;;
15039;SDS011;7617;47.366;8.558;2024-02-04T07:22:24;12.93;;;8.40;;
15039;SDS011;7617;47.366;8.558;2024-02-04T07:24:52;11.07;;;8.67;;
15039;SDS011;7617;47.366;8.558;2024-02-04T07:27:21;11.37;;;8.70;;
15039;SDS011;7617;47.366;8.558;2024-02-04T07:29:49;11.73;;;9.87;;
15039;SDS011;7617;47.366;8.558;2024-02-04T07:32:19;13.43;;;9.43;;
15039;SDS011;7617;47.366;8.558;2024-02-04T07:34:48;14.50;;;10.33;;
15039;SDS011;7617;47.366;8.558;2024-02-04T07:37:16;11.20;;;9.53;;
15039;SDS011;7617;47.366;8.558;2024-02-04T07:39:45;12.93;;;9.83;;
15039;SDS011;7617;47.366;8.558;2024-02-04T07:42:13;13.70;;;10.10;;
15039;SDS011;7617;47.366;8.558;2024-02-04T07:44:41;14.03;;;10.33;;
15039;SDS011;7617;47.366;8.558;2024-02-04T07:47:09;14.43;;;10.53;;
15039;SDS011;7617;47.366;8.558;2024-02-04T07:49:39;13.97;;;10.43;;
15039;SDS011;7617;47.366;8.558;2024-02-04T07:52:08;14.67;;;11.33;;
15039;SDS011;7617;47.366;8.558;2024-02-04T07:54:36;13.87;;;10.30;;
15039;SDS011;7617;47.366;8.558;2024-02-04T07:57:04;13.87;;;10.23;;
15039;SDS011;7617;47.366;8.558;2024-02-04T07:59:33;14.40;;;10.30;;
15039;SDS011;7617;47.366;8.558;2024-02-04T08:02:02;12.80;;;10.53;;
15039;SDS011;7617;47.366;8.558;2024-02-04T08:04:31;14.77;;;11.50;;
15039;SDS011;7617;47.366;8.558;2024-02-04T08:07:00;13.90;;;10.77;;
15039;SDS011;7617;47.366;8.558;2024-02-04T08:09:30;13.57;;;10.63;;
15039;SDS011;7617;47.366;8.558;2024-02-04T08:11:58;14.20;;;10.57;;
15039;SDS011;7617;47.366;8.558;2024-02-04T08:14:26;13.03;;;10.20;;
15039;SDS011;7617;47.366;8.558;2024-02-04T08:16:55;16.90;;;11.70;;
15039;SDS011;7617;47.366;8.558;2024-02-04T08:19:25;14.40;;;11.27;;
15039;SDS011;7617;47.366;8.558;2024-02-04T08:21:53;13.93;;;11.13;;
15039;SDS011;7617;47.366;8.558;2024-02-04T08:24:23;12.83;;;10.23;;
15039;SDS011;7617;47.366;8.558;2024-02-04T08:26:51;12.20;;;9.67;;
15039;SDS011;7617;47.366;8.558;2024-02-04T08:29:20;12.43;;;9.90;;
15039;SDS011;7617;47.366;8.558;2024-02-04T08:31:48;22.00;;;14.63;;
15039;SDS011;7617;47.366;8.558;2024-02-04T08:34:16;12.10;;;9.97;;
15039;SDS011;7617;47.366;8.558;2024-02-04T08:36:47;11.10;;;8.80;;
15039;SDS011;7617;47.366;8.558;2024-02-04T08:39:16;14.77;;;10.73;;
15039;SDS011;7617;47.366;8.558;2024-02-04T08:41:46;14.33;;;11.27;;
15039;SDS011;7617;47.366;8.558;2024-02-04T08:44:13;18.27;;;13.03;;
15039;SDS011;7617;47.366;8.558;2024-02-04T08:47:01;12.30;;;9.10;;
15039;SDS011;7617;47.366;8.558;2024-02-04T08:49:29;12.43;;;10.30;;
15039;SDS011;7617;47.366;8.558;2024-02-04T08:51:57;12.07;;;9.47;;
15039;SDS011;7617;47.366;8.558;2024-02-04T08:54:26;11.83;;;9.33;;
15039;SDS011;7617;47.366;8.558;2024-02-04T08:56:56;24.47;;;15.13;;
15039;SDS011;7617;47.366;8.558;2024-02-04T08:59:24;58.43;;;28.10;;
15039;SDS011;7617;47.366;8.558;2024-02-04T09:01:52;17.27;;;10.87;;
15039;SDS011;7617;47.366;8.558;2024-02-04T09:04:21;34.28;;;18.13;;
15039;SDS011;7617;47.366;8.558;2024-02-04T09:06:50;16.27;;;10.45;;
15039;SDS011;7617;47.366;8.558;2024-02-04T09:09:18;21.43;;;12.63;;
15039;SDS011;7617;47.366;8.558;2024-02-04T09:11:46;32.20;;;19.40;;
15039;SDS011;7617;47.366;8.558;2024-02-04T09:14:16;28.67;;;23.93;;
15039;SDS011;7617;47.366;8.558;2024-02-04T09:16:44;13.05;;;10.57;;
15039;SDS011;7617;47.366;8.558;2024-02-04T09:19:12;10.60;;;8.80;;
15039;SDS011;7617;47.366;8.558;2024-02-04T09:21:42;11.20;;;9.33;;
15039;SDS011;7617;47.366;8.558;2024-02-04T09:24:11;8.90;;;7.50;;
15039;SDS011;7617;47.366;8.558;2024-02-04T09:26:39;8.90;;;6.90;;
15039;SDS011;7617;47.366;8.558;2024-02-04T09:29:08;10.17;;;8.23;;
15039;SDS011;7617;47.366;8.558;2024-02-04T09:31:37;9.00;;;7.63;;
15039;SDS011;7617;47.366;8.558;2024-02-04T09:34:06;12.60;;;9.67;;
15039;SDS011;7617;47.366;8.558;2024-02-04T09:36:36;11.87;;;9.23;;
15039;SDS011;7617;47.366;8.558;2024-02-04T09:39:05;10.73;;;8.40;;
15039;SDS011;7617;47.366;8.558;2024-02-04T09:41:34;9.23;;;7.10;;
15039;SDS011;7617;47.366;8.558;2024-02-04T09:44:02;9.88;;;7.88;;
15039;SDS011;7617;47.366;8.558;2024-02-04T09:46:33;9.20;;;7.45;;
15039;SDS011;7617;47.366;8.558;2024-02-04T09:49:02;10.10;;;7.82;;
15039;SDS011;7617;47.366;8.558;2024-02-04T09:51:33;10.50;;;7.78;;
15039;SDS011;7617;47.366;8.558;2024-02-04T09:54:02;9.95;;;8.38;;
15039;SDS011;7617;47.366;8.558;2024-02-04T09:56:34;10.27;;;7.55;;
15039;SDS011;7617;47.366;8.558;2024-02-04T09:59:05;9.50;;;8.50;;
15039;SDS011;7617;47.366;8.558;2024-02-04T10:01:33;10.23;;;8.10;;
15039;SDS011;7617;47.366;8.558;2024-02-04T10:04:05;9.98;;;7.65;;
15039;SDS011;7617;47.366;8.558;2024-02-04T10:06:33;10.45;;;8.63;;
15039;SDS011;7617;47.366;8.558;2024-02-04T10:09:02;9.07;;;7.88;;
15039;SDS011;7617;47.366;8.558;2024-02-04T10:11:31;10.35;;;8.60;;
15039;SDS011;7617;47.366;8.558;2024-02-04T10:14:00;10.27;;;7.30;;
15039;SDS011;7617;47.366;8.558;2024-02-04T10:16:28;9.32;;;7.50;;
15039;SDS011;7617;47.366;8.558;2024-02-04T10:18:57;10.65;;;8.15;;
15039;SDS011;7617;47.366;8.558;2024-02-04T10:21:26;9.10;;;7.43;;
15039;SDS011;7617;47.366;8.558;2024-02-04T10:23:55;11.77;;;8.18;;
15039;SDS011;7617;47.366;8.558;2024-02-04T10:26:28;9.88;;;7.60;;
15039;SDS011;7617;47.366;8.558;2024-02-04T10:28:58;11.30;;;7.95;;
15039;SDS011;7617;47.366;8.558;2024-02-04T10:31:27;9.43;;;7.50;;
15039;SDS011;7617;47.366;8.558;2024-02-04T10:33:55;10.27;;;7.18;;
15039;SDS011;7617;47.366;8.558;2024-02-04T10:36:24;10.23;;;8.10;;
15039;SDS011;7617;47.366;8.558;2024-02-04T10:38:54;10.80;;;8.57;;
15039;SDS011;7617;47.366;8.558;2024-02-04T10:41:22;10.35;;;8.63;;
15039;SDS011;7617;47.366;8.558;2024-02-04T10:43:53;11.40;;;10.20;;
15039;SDS011;7617;47.366;8.558;2024-02-04T10:46:22;10.50;;;8.73;;
15039;SDS011;7617;47.366;8.558;2024-02-04T10:48:53;9.00;;;8.10;;
15039;SDS011;7617;47.366;8.558;2024-02-04T10:51:25;11.70;;;8.87;;
15039;SDS011;7617;47.366;8.558;2024-02-04T10:53:56;10.10;;;8.57;;
15039;SDS011;7617;47.366;8.558;2024-02-04T10:56:29;10.83;;;8.73;;
15039;SDS011;7617;47.366;8.558;2024-02-04T10:59:00;9.63;;;8.53;;
15039;SDS011;7617;47.366;8.558;2024-02-04T11:01:30;9.77;;;8.47;;
15039;SDS011;7617;47.366;8.558;2024-02-04T11:04:00;10.27;;;8.80;;
15039;SDS011;7617;47.366;8.558;2024-02-04T11:06:31;10.27;;;8.63;;
15039;SDS011;7617;47.366;8.558;2024-02-04T11:09:02;10.90;;;8.73;;
15039;SDS011;7617;47.366;8.558;2024-02-04T11:11:32;9.77;;;8.27;;
15039;SDS011;7617;47.366;8.558;2024-02-04T11:14:03;11.47;;;8.37;;
15039;SDS011;7617;47.366;8.558;2024-02-04T11:16:45;11.40;;;9.05;;
15039;SDS011;7617;47.366;8.558;2024-02-04T11:19:27;9.50;;;8.30;;
15039;SDS011;7617;47.366;8.558;2024-02-04T11:22:11;10.17;;;8.70;;
15039;SDS011;7617;47.366;8.558;2024-02-04T11:25:07;9.30;;;8.00;;
15039;SDS011;7617;47.366;8.558;2024-02-04T11:27:50;10.63;;;9.00;;
15039;SDS011;7617;47.366;8.558;2024-02-04T11:30:19;10.87;;;8.20;;
15039;SDS011;7617;47.366;8.558;2024-02-04T11:32:48;10.33;;;8.80;;
15039;SDS011;7617;47.366;8.558;2024-02-04T11:35:17;11.88;;;9.25;;
15039;SDS011;7617;47.366;8.558;2024-02-04T11:37:49;11.47;;;9.10;;
15039;SDS011;7617;47.366;8.558;2024-02-04T11:40:20;12.07;;;9.10;;
15039;SDS011;7617;47.366;8.558;2024-02-04T11:42:50;10.93;;;8.95;;
15039;SDS011;7617;47.366;8.558;2024-02-04T11:45:18;13.07;;;9.55;;
15039;SDS011;7617;47.366;8.558;2024-02-04T11:47:47;11.57;;;8.98;;
15039;SDS011;7617;47.366;8.558;2024-02-04T11:50:25;10.48;;;8.90;;
15039;SDS011;7617;47.366;8.558;2024-02-04T11:53:06;9.55;;;8.55;;
15039;SDS011;7617;47.366;8.558;2024-02-04T11:55:38;12.90;;;8.70;;
15039;SDS011;7617;47.366;8.558;2024-02-04T11:58:12;11.07;;;9.30;;
15039;SDS011;7617;47.366;8.558;2024-02-04T12:00:42;10.02;;;8.77;;
15039;SDS011;7617;47.366;8.558;2024-02-04T12:03:12;12.25;;;9.20;;
15039;SDS011;7617;47.366;8.558;2024-02-04T12:05:40;9.73;;;8.45;;
15039;SDS011;7617;47.366;8.558;2024-02-04T12:08:10;10.63;;;8.68;;
15039;SDS011;7617;47.366;8.558;2024-02-04T12:10:41;9.77;;;8.55;;
15039;SDS011;7617;47.366;8.558;2024-02-04T12:13:10;12.80;;;8.77;;
15039;SDS011;7617;47.366;8.558;2024-02-04T12:15:38;10.02;;;8.00;;
15039;SDS011;7617;47.366;8.558;2024-02-04T12:18:07;9.88;;;8.70;;
15039;SDS011;7617;47.366;8.558;2024-02-04T12:20:37;8.63;;;7.50;;
15039;SDS011;7617;47.366;8.558;2024-02-04T12:23:06;8.75;;;7.80;;
15039;SDS011;7617;47.366;8.558;2024-02-04T12:25:35;9.98;;;8.02;;
15039;SDS011;7617;47.366;8.558;2024-02-04T12:28:10;10.02;;;8.45;;
15039;SDS011;7617;47.366;8.558;2024-02-04T12:30:39;10.30;;;9.10;;
15039;SDS011;7617;47.366;8.558;2024-02-04T12:33:08;9.75;;;8.55;;
15039;SDS011;7617;47.366;8.558;2024-02-04T12:35:36;10.90;;;8.75;;
15039;SDS011;7617;47.366;8.558;2024-02-04T12:38:04;12.30;;;8.23;;
15039;SDS011;7617;47.366;8.558;2024-02-04T12:40:34;9.95;;;8.13;;
15039;SDS011;7617;47.366;8.558;2024-02-04T12:43:02;10.68;;;7.95;;
15039;SDS011;7617;47.366;8.558;2024-02-04T12:45:34;10.00;;;9.00;;
15039;SDS011;7617;47.366;8.558;2024-02-04T12:48:03;12.13;;;9.68;;
15039;SDS011;7617;47.366;8.558;2024-02-04T12:50:32;11.88;;;9.23;;
15039;SDS011;7617;47.366;8.558;2024-02-04T12:53:03;9.77;;;8.40;;
15039;SDS011;7617;47.366;8.558;2024-02-04T12:55:32;10.98;;;9.02;;
15039;SDS011;7617;47.366;8.558;2024-02-04T12:58:02;11.55;;;8.60;;
15039;SDS011;7617;47.366;8.558;2024-02-04T13:00:32;10.45;;;8.65;;
15039;SDS011;7617;47.366;8.558;2024-02-04T13:03:03;10.18;;;8.23;;
15039;SDS011;7617;47.366;8.558;2024-02-04T13:05:32;10.48;;;9.10;;
15039;SDS011;7617;47.366;8.558;2024-02-04T13:08:02;10.13;;;8.55;;
15039;SDS011;7617;47.366;8.558;2024-02-04T13:10:33;9.50;;;8.38;;
15039;SDS011;7617;47.366;8.558;2024-02-04T13:13:02;9.40;;;8.35;;
15039;SDS011;7617;47.366;8.558;2024-02-04T13:15:36;10.50;;;9.32;;
15039;SDS011;7617;47.366;8.558;2024-02-04T13:18:07;10.65;;;8.77;;
15039;SDS011;7617;47.366;8.558;2024-02-04T13:20:37;9.82;;;8.32;;
15039;SDS011;7617;47.366;8.558;2024-02-04T13:23:07;9.88;;;8.40;;
15039;SDS011;7617;47.366;8.558;2024-02-04T13:25:36;9.55;;;8.55;;
15039;SDS011;7617;47.366;8.558;2024-02-04T13:28:03;9.93;;;8.38;;
15039;SDS011;7617;47.366;8.558;2024-02-04T13:30:32;10.23;;;8.93;;
15039;SDS011;7617;47.366;8.558;2024-02-04T13:33:00;10.00;;;8.93;;
15039;SDS011;7617;47.366;8.558;2024-02-04T13:35:31;10.50;;;9.13;;
15039;SDS011;7617;47.366;8.558;2024-02-04T13:38:00;9.77;;;8.70;;
15039;SDS011;7617;47.366;8.558;2024-02-04T13:40:28;10.43;;;8.60;;
15039;SDS011;7617;47.366;8.558;2024-02-04T13:42:57;10.25;;;8.73;;
15039;SDS011;7617;47.366;8.558;2024-02-04T13:45:25;10.65;;;8.50;;
15039;SDS011;7617;47.366;8.558;2024-02-04T13:47:54;10.40;;;8.45;;
15039;SDS011;7617;47.366;8.558;2024-02-04T13:50:22;11.65;;;9.45;;
15039;SDS011;7617;47.366;8.558;2024-02-04T13:52:52;11.40;;;9.07;;
15039;SDS011;7617;47.366;8.558;2024-02-04T13:55:20;10.98;;;9.27;;
15039;SDS011;7617;47.366;8.558;2024-02-04T13:57:48;10.32;;;9.02;;
15039;SDS011;7617;47.366;8.558;2024-02-04T14:00:17;12.02;;;8.77;;
15039;SDS011;7617;47.366;8.558;2024-02-04T14:02:45;12.63;;;10.88;;
15039;SDS011;7617;47.366;8.558;2024-02-04T14:05:14;12.52;;;9.35;;
15039;SDS011;7617;47.366;8.558;2024-02-04T14:07:43;10.00;;;8.88;;
15039;SDS011;7617;47.366;8.558;2024-02-04T14:10:13;12.93;;;9.35;;
15039;SDS011;7617;47.366;8.558;2024-02-04T14:12:41;12.50;;;9.77;;
15039;SDS011;7617;47.366;8.558;2024-02-04T14:15:12;10.27;;;9.02;;
15039;SDS011;7617;47.366;8.558;2024-02-04T14:17:40;10.57;;;9.20;;
15039;SDS011;7617;47.366;8.558;2024-02-04T14:20:09;11.00;;;9.15;;
15039;SDS011;7617;47.366;8.558;2024-02-04T14:22:40;11.23;;;9.30;;
15039;SDS011;7617;47.366;8.558;2024-02-04T14:25:08;9.93;;;8.73;;
15039;SDS011;7617;47.366;8.558;2024-02-04T14:27:38;11.77;;;9.27;;
15039;SDS011;7617;47.366;8.558;2024-02-04T14:30:08;10.80;;;9.65;;
15039;SDS011;7617;47.366;8.558;2024-02-04T14:32:37;11.07;;;9.50;;
15039;SDS011;7617;47.366;8.558;2024-02-04T14:35:06;13.00;;;9.82;;
15039;SDS011;7617;47.366;8.558;2024-02-04T14:37:36;10.85;;;9.45;;
15039;SDS011;7617;47.366;8.558;2024-02-04T14:40:07;11.95;;;9.48;;
15039;SDS011;7617;47.366;8.558;2024-02-04T14:42:44;10.73;;;8.98;;
15039;SDS011;7617;47.366;8.558;2024-02-04T14:45:12;11.20;;;9.25;;
15039;SDS011;7617;47.366;8.558;2024-02-04T14:47:40;11.55;;;9.02;;
15039;SDS011;7617;47.366;8.558;2024-02-04T14:50:09;11.48;;;9.32;;
15039;SDS011;7617;47.366;8.558;2024-02-04T14:52:39;10.73;;;9.13;;
15039;SDS011;7617;47.366;8.558;2024-02-04T14:55:08;11.50;;;9.07;;
15039;SDS011;7617;47.366;8.558;2024-02-04T14:57:37;12.60;;;10.10;;
15039;SDS011;7617;47.366;8.558;2024-02-04T15:00:08;12.45;;;9.25;;
15039;SDS011;7617;47.366;8.558;2024-02-04T15:02:37;10.50;;;8.52;;
15039;SDS011;7617;47.366;8.558;2024-02-04T15:05:06;12.02;;;9.18;;
15039;SDS011;7617;47.366;8.558;2024-02-04T15:07:38;10.70;;;9.10;;